PWSweather.com
Personal Weather Stations
Station Observations
MENWDWX1
Menstrie, ScotlandGB

MenstrieScotlandGB

Lat: 56.148322, Lon: -3.85483

Elevation: 62

Station Type: Davis Vantage Pro 2

High Low Average
Temperature 57.9°F14.4°C 54.5°F12.5°C 56.0°F13.3°C
Dew Point 50.7°F10.4°C 47.5°F8.6°C 49.0°F9.4°C
Winds 12.7 mph 20.4 kmh Calm Calm 5.0 mph SW8.0 kmh SW
Wind Gusts 24.2 mph38.9 kmh -- 8.0 mph12.9 kmh
Humidity 78% 77% 77%
Pressure 29.84 in1010.5 mb 29.62 in1003.0 mb -
Precipitation 0.24 in6.1 mm - -
Hour Temp Dew Point Humidity Winds Wind Gusts Pressure Precip Precip Rate Daily Precip Total
12:00 AM 56.2°F13.4°C 49.1°F9.5°C 77% 8.1 mph WSW13.0 kmh WSW 11.5 mph18.5 kmh 29.66 in1004.4 mb - 0.00 in0.0 mm 0.00 in0.0 mm
12:05 AM 56.2°F13.4°C 49.1°F9.5°C 77% 6.9 mph WSW11.1 kmh WSW 17.3 mph27.8 kmh 29.66 in1004.4 mb - 0.00 in0.0 mm 0.00 in0.0 mm
12:10 AM 56.2°F13.4°C 49.1°F9.5°C 77% 8.1 mph SW13.0 kmh SW 10.4 mph16.7 kmh 29.66 in1004.4 mb - 0.00 in0.0 mm 0.00 in0.0 mm
12:15 AM 56.2°F13.4°C 49.1°F9.5°C 77% 9.2 mph SW14.8 kmh SW 12.7 mph20.4 kmh 29.66 in1004.4 mb - 0.00 in0.0 mm 0.00 in0.0 mm
12:20 AM 56.3°F13.5°C 49.1°F9.5°C 77% 9.2 mph SW14.8 kmh SW 15.0 mph24.1 kmh 29.66 in1004.4 mb - 0.00 in0.0 mm 0.00 in0.0 mm
12:25 AM 56.3°F13.5°C 49.2°F9.6°C 77% 10.4 mph SW16.7 kmh SW 17.3 mph27.8 kmh 29.66 in1004.4 mb - 0.00 in0.0 mm 0.00 in0.0 mm
12:30 AM 56.3°F13.5°C 49.2°F9.6°C 77% 9.2 mph SW14.8 kmh SW 15.0 mph24.1 kmh 29.66 in1004.4 mb - 0.00 in0.0 mm 0.00 in0.0 mm
12:35 AM 56.3°F13.5°C 49.5°F9.7°C 78% 8.1 mph SW13.0 kmh SW 18.4 mph29.6 kmh 29.66 in1004.4 mb - 0.00 in0.0 mm 0.00 in0.0 mm
12:40 AM 56.4°F13.6°C 49.6°F9.8°C 78% 10.4 mph WSW16.7 kmh WSW 19.6 mph31.5 kmh 29.66 in1004.4 mb - 0.00 in0.0 mm 0.00 in0.0 mm
12:45 AM 56.4°F13.6°C 49.6°F9.8°C 78% 5.8 mph WSW9.3 kmh WSW 13.8 mph22.2 kmh 29.66 in1004.4 mb - 0.00 in0.0 mm 0.00 in0.0 mm
12:50 AM 56.4°F13.6°C 49.6°F9.8°C 78% 8.1 mph WSW13.0 kmh WSW 11.5 mph18.5 kmh 29.66 in1004.4 mb - 0.00 in0.0 mm 0.00 in0.0 mm
12:55 AM 56.4°F13.6°C 49.6°F9.8°C 78% 9.2 mph SW14.8 kmh SW 12.7 mph20.4 kmh 29.66 in1004.4 mb - 0.00 in0.0 mm 0.00 in0.0 mm
01:00 AM 56.4°F13.6°C 49.6°F9.8°C 78% 8.1 mph SW13.0 kmh SW 11.5 mph18.5 kmh 29.66 in1004.4 mb - 0.00 in0.0 mm 0.00 in0.0 mm
01:05 AM 56.3°F13.5°C 49.5°F9.7°C 78% 9.2 mph WSW14.8 kmh WSW 12.7 mph20.4 kmh 29.65 in1004.1 mb - 0.00 in0.0 mm 0.00 in0.0 mm
01:10 AM 56.1°F13.4°C 49.3°F9.6°C 78% 8.1 mph SW13.0 kmh SW 12.7 mph20.4 kmh 29.65 in1004.1 mb - 0.00 in0.0 mm 0.00 in0.0 mm
01:15 AM 55.9°F13.3°C 49.1°F9.5°C 78% 9.2 mph SW14.8 kmh SW 13.8 mph22.2 kmh 29.65 in1004.1 mb - 0.00 in0.0 mm 0.00 in0.0 mm
01:20 AM 55.8°F13.2°C 49.0°F9.4°C 78% 9.2 mph SW14.8 kmh SW 11.5 mph18.5 kmh 29.65 in1004.1 mb - 0.00 in0.0 mm 0.00 in0.0 mm
01:25 AM 55.8°F13.2°C 49.0°F9.4°C 78% 8.1 mph WSW13.0 kmh WSW 11.5 mph18.5 kmh 29.65 in1004.1 mb - 0.00 in0.0 mm 0.00 in0.0 mm
01:30 AM 55.9°F13.3°C 49.1°F9.5°C 78% 10.4 mph WSW16.7 kmh WSW 18.4 mph29.6 kmh 29.65 in1004.1 mb - 0.00 in0.0 mm 0.00 in0.0 mm
01:35 AM 56.0°F13.3°C 49.2°F9.6°C 78% 9.2 mph WSW14.8 kmh WSW 11.5 mph18.5 kmh 29.66 in1004.4 mb - 0.00 in0.0 mm 0.00 in0.0 mm
01:40 AM 56.1°F13.4°C 49.3°F9.6°C 78% 6.9 mph WSW11.1 kmh WSW 12.7 mph20.4 kmh 29.65 in1004.1 mb - 0.00 in0.0 mm 0.00 in0.0 mm
01:45 AM 56.2°F13.4°C 49.4°F9.7°C 78% 6.9 mph SW11.1 kmh SW 10.4 mph16.7 kmh 29.66 in1004.4 mb - 0.00 in0.0 mm 0.00 in0.0 mm
01:50 AM 56.3°F13.5°C 49.5°F9.7°C 78% 9.2 mph WSW14.8 kmh WSW 11.5 mph18.5 kmh 29.66 in1004.4 mb - 0.00 in0.0 mm 0.00 in0.0 mm
01:55 AM 56.3°F13.5°C 49.6°F9.8°C 78% 12.7 mph WSW20.4 kmh WSW 21.9 mph35.2 kmh 29.66 in1004.4 mb - 0.00 in0.0 mm 0.00 in0.0 mm
02:00 AM 56.4°F13.6°C 49.6°F9.8°C 78% 8.1 mph WSW13.0 kmh WSW 12.7 mph20.4 kmh 29.66 in1004.4 mb - 0.00 in0.0 mm 0.00 in0.0 mm
02:05 AM 56.4°F13.6°C 49.6°F9.8°C 78% 9.2 mph SW14.8 kmh SW 13.8 mph22.2 kmh 29.66 in1004.4 mb - 0.00 in0.0 mm 0.00 in0.0 mm
02:10 AM 56.4°F13.6°C 49.6°F9.8°C 78% 5.8 mph SW9.3 kmh SW 17.3 mph27.8 kmh 29.66 in1004.4 mb - 0.00 in0.0 mm 0.00 in0.0 mm
02:15 AM 56.3°F13.5°C 49.5°F9.7°C 78% 8.1 mph SW13.0 kmh SW 15.0 mph24.1 kmh 29.65 in1004.1 mb - 0.00 in0.0 mm 0.00 in0.0 mm
02:20 AM 56.3°F13.5°C 49.5°F9.7°C 78% 11.5 mph WSW18.5 kmh WSW 12.7 mph20.4 kmh 29.65 in1004.1 mb - 0.00 in0.0 mm 0.00 in0.0 mm
02:25 AM 56.2°F13.4°C 49.4°F9.7°C 78% 10.4 mph SW16.7 kmh SW 17.3 mph27.8 kmh 29.65 in1004.1 mb - 0.00 in0.0 mm 0.00 in0.0 mm
02:30 AM 56.2°F13.4°C 49.4°F9.7°C 78% 5.8 mph WSW9.3 kmh WSW 11.5 mph18.5 kmh 29.65 in1004.1 mb - 0.00 in0.0 mm 0.00 in0.0 mm
02:35 AM 56.1°F13.4°C 49.3°F9.6°C 78% 3.5 mph SW5.6 kmh SW 5.8 mph9.3 kmh 29.65 in1004.1 mb - 0.00 in0.0 mm 0.00 in0.0 mm
02:40 AM 55.9°F13.3°C 49.1°F9.5°C 78% 5.8 mph SW9.3 kmh SW 10.4 mph16.7 kmh 29.65 in1004.1 mb - 0.00 in0.0 mm 0.00 in0.0 mm
02:45 AM 55.7°F13.2°C 48.9°F9.4°C 78% 6.9 mph SW11.1 kmh SW 11.5 mph18.5 kmh 29.65 in1004.1 mb - 0.01 in0.3 mm 0.01 in0.3 mm
02:50 AM 55.5°F13.1°C 48.4°F9.1°C 77% 8.1 mph SW13.0 kmh SW 11.5 mph18.5 kmh 29.65 in1004.1 mb - 0.01 in0.3 mm 0.01 in0.3 mm
02:55 AM 55.3°F12.9°C 48.2°F9.0°C 77% 4.6 mph WSW7.4 kmh WSW 11.5 mph18.5 kmh 29.64 in1003.7 mb - 0.00 in0.0 mm 0.01 in0.3 mm
03:00 AM 55.2°F12.9°C 48.1°F8.9°C 77% 4.6 mph WSW7.4 kmh WSW 4.6 mph7.4 kmh 29.64 in1003.7 mb - 0.00 in0.0 mm 0.01 in0.3 mm
03:05 AM 55.1°F12.8°C 48.0°F8.9°C 77% 2.3 mph W3.7 kmh W 3.5 mph5.6 kmh 29.64 in1003.7 mb - 0.00 in0.0 mm 0.01 in0.3 mm
03:10 AM 55.1°F12.8°C 48.0°F8.9°C 77% 3.5 mph WSW5.6 kmh WSW 6.9 mph11.1 kmh 29.64 in1003.7 mb - 0.01 in0.3 mm 0.02 in0.5 mm
03:15 AM 55.0°F12.8°C 47.9°F8.8°C 77% 4.6 mph SW7.4 kmh SW 8.1 mph13.0 kmh 29.64 in1003.7 mb - 0.00 in0.0 mm 0.02 in0.5 mm
03:20 AM 55.0°F12.8°C 47.9°F8.8°C 77% 2.3 mph SSW3.7 kmh SSW 3.5 mph5.6 kmh 29.64 in1003.7 mb - 0.00 in0.0 mm 0.02 in0.5 mm
03:25 AM 54.9°F12.7°C 47.8°F8.8°C 77% 5.8 mph WSW9.3 kmh WSW 8.1 mph13.0 kmh 29.64 in1003.7 mb - 0.01 in0.3 mm 0.03 in0.8 mm
03:30 AM 54.9°F12.7°C 47.8°F8.8°C 77% 5.8 mph WSW9.3 kmh WSW 9.2 mph14.8 kmh 29.64 in1003.7 mb - 0.00 in0.0 mm 0.03 in0.8 mm
03:35 AM 54.8°F12.7°C 47.7°F8.7°C 77% 5.8 mph WSW9.3 kmh WSW 11.5 mph18.5 kmh 29.64 in1003.7 mb - 0.00 in0.0 mm 0.03 in0.8 mm
03:40 AM 54.8°F12.7°C 47.7°F8.7°C 77% 5.8 mph SW9.3 kmh SW 8.1 mph13.0 kmh 29.64 in1003.7 mb - 0.01 in0.3 mm 0.03 in0.8 mm
03:45 AM 54.8°F12.7°C 47.7°F8.7°C 77% 1.2 mph WSW1.9 kmh WSW 3.5 mph5.6 kmh 29.64 in1003.7 mb - 0.01 in0.3 mm 0.04 in1.0 mm
03:50 AM 54.8°F12.7°C 47.7°F8.7°C 77% 3.5 mph SW5.6 kmh SW 4.6 mph7.4 kmh 29.64 in1003.7 mb - 0.01 in0.3 mm 0.05 in1.3 mm
03:55 AM 54.7°F12.6°C 47.6°F8.7°C 77% 3.5 mph WSW5.6 kmh WSW 10.4 mph16.7 kmh 29.64 in1003.7 mb - 0.01 in0.3 mm 0.05 in1.3 mm
04:00 AM 54.6°F12.6°C 47.5°F8.6°C 77% 3.5 mph SW5.6 kmh SW 5.8 mph9.3 kmh 29.64 in1003.7 mb - 0.01 in0.3 mm 0.06 in1.5 mm
04:05 AM 54.6°F12.6°C 47.5°F8.6°C 77% 4.6 mph SW7.4 kmh SW 8.1 mph13.0 kmh 29.63 in1003.4 mb - 0.01 in0.3 mm 0.07 in1.8 mm
04:10 AM 54.6°F12.6°C 47.5°F8.6°C 77% 3.5 mph SW5.6 kmh SW 8.1 mph13.0 kmh 29.63 in1003.4 mb - 0.01 in0.3 mm 0.07 in1.8 mm
04:15 AM 54.6°F12.6°C 47.5°F8.6°C 77% 3.5 mph WSW5.6 kmh WSW 5.8 mph9.3 kmh 29.63 in1003.4 mb - 0.00 in0.0 mm 0.07 in1.8 mm
04:20 AM 54.6°F12.6°C 47.5°F8.6°C 77% 5.8 mph WSW9.3 kmh WSW 10.4 mph16.7 kmh 29.63 in1003.4 mb - 0.01 in0.3 mm 0.07 in1.8 mm
04:25 AM 54.6°F12.6°C 47.9°F8.8°C 78% 4.6 mph SW7.4 kmh SW 8.1 mph13.0 kmh 29.63 in1003.4 mb - 0.00 in0.0 mm 0.07 in1.8 mm
04:30 AM 54.6°F12.6°C 47.9°F8.8°C 78% 1.2 mph SW1.9 kmh SW 4.6 mph7.4 kmh 29.63 in1003.4 mb - 0.01 in0.3 mm 0.08 in2.0 mm
04:35 AM 54.5°F12.5°C 47.8°F8.8°C 78% 5.8 mph WSW9.3 kmh WSW 9.2 mph14.8 kmh 29.63 in1003.4 mb - 0.01 in0.3 mm 0.08 in2.0 mm
04:40 AM 54.6°F12.6°C 47.9°F8.8°C 78% 2.3 mph WSW3.7 kmh WSW 4.6 mph7.4 kmh 29.62 in1003.0 mb - 0.00 in0.0 mm 0.08 in2.0 mm
04:45 AM 54.5°F12.5°C 47.8°F8.8°C 78% 4.6 mph SW7.4 kmh SW 8.1 mph13.0 kmh 29.62 in1003.0 mb - 0.00 in0.0 mm 0.08 in2.0 mm
04:50 AM 54.6°F12.6°C 47.9°F8.8°C 78% 8.1 mph SW13.0 kmh SW 11.5 mph18.5 kmh 29.62 in1003.0 mb - 0.01 in0.3 mm 0.09 in2.3 mm
04:55 AM 54.6°F12.6°C 47.9°F8.8°C 78% 4.6 mph SW7.4 kmh SW 17.3 mph27.8 kmh 29.62 in1003.0 mb - 0.00 in0.0 mm 0.09 in2.3 mm
05:00 AM 54.7°F12.6°C 47.6°F8.7°C 77% 4.6 mph SW7.4 kmh SW 9.2 mph14.8 kmh 29.62 in1003.0 mb - 0.00 in0.0 mm 0.09 in2.3 mm
05:05 AM 54.8°F12.7°C 47.7°F8.7°C 77% 5.8 mph SW9.3 kmh SW 10.4 mph16.7 kmh 29.62 in1003.0 mb - 0.00 in0.0 mm 0.09 in2.3 mm
05:10 AM 54.8°F12.7°C 47.7°F8.7°C 77% 6.9 mph SW11.1 kmh SW 12.7 mph20.4 kmh 29.62 in1003.0 mb - 0.00 in0.0 mm 0.09 in2.3 mm
05:15 AM 54.8°F12.7°C 47.7°F8.7°C 77% 5.8 mph SW9.3 kmh SW 11.5 mph18.5 kmh 29.62 in1003.0 mb - 0.00 in0.0 mm 0.09 in2.3 mm
05:20 AM 54.8°F12.7°C 47.7°F8.7°C 77% 3.5 mph WSW5.6 kmh WSW 11.5 mph18.5 kmh 29.62 in1003.0 mb - 0.00 in0.0 mm 0.09 in2.3 mm
05:25 AM 54.8°F12.7°C 47.7°F8.7°C 77% 6.9 mph WSW11.1 kmh WSW 11.5 mph18.5 kmh 29.62 in1003.0 mb - 0.01 in0.3 mm 0.10 in2.5 mm
05:30 AM 54.8°F12.7°C 47.7°F8.7°C 77% 4.6 mph SW7.4 kmh SW 8.1 mph13.0 kmh 29.62 in1003.0 mb - 0.00 in0.0 mm 0.10 in2.5 mm
05:35 AM 54.8°F12.7°C 48.1°F8.9°C 78% 6.9 mph SW11.1 kmh SW 11.5 mph18.5 kmh 29.62 in1003.0 mb - 0.00 in0.0 mm 0.10 in2.5 mm
05:40 AM 54.7°F12.6°C 48.0°F8.9°C 78% 6.9 mph SW11.1 kmh SW 11.5 mph18.5 kmh 29.62 in1003.0 mb - 0.00 in0.0 mm 0.10 in2.5 mm
05:45 AM 54.7°F12.6°C 48.0°F8.9°C 78% 6.9 mph SW11.1 kmh SW 11.5 mph18.5 kmh 29.62 in1003.0 mb - 0.01 in0.3 mm 0.11 in2.8 mm
05:50 AM 54.7°F12.6°C 47.9°F8.8°C 78% 5.8 mph WSW9.3 kmh WSW 11.5 mph18.5 kmh 29.62 in1003.0 mb - 0.01 in0.3 mm 0.11 in2.8 mm
05:55 AM 54.6°F12.6°C 47.9°F8.8°C 78% 3.5 mph WSW5.6 kmh WSW 5.8 mph9.3 kmh 29.62 in1003.0 mb - 0.00 in0.0 mm 0.11 in2.8 mm
06:00 AM 54.6°F12.6°C 47.9°F8.8°C 78% 3.5 mph SW5.6 kmh SW 11.5 mph18.5 kmh 29.62 in1003.0 mb - 0.00 in0.0 mm 0.11 in2.8 mm
06:05 AM 54.6°F12.6°C 47.9°F8.8°C 78% 2.3 mph SSW3.7 kmh SSW 2.3 mph3.7 kmh 29.62 in1003.0 mb - 0.00 in0.0 mm 0.11 in2.8 mm
06:10 AM 54.6°F12.6°C 47.9°F8.8°C 78% 2.3 mph SW3.7 kmh SW 6.9 mph11.1 kmh 29.62 in1003.0 mb - 0.01 in0.3 mm 0.12 in3.0 mm
06:15 AM 54.6°F12.6°C 47.9°F8.8°C 78% 3.5 mph SW5.6 kmh SW 5.8 mph9.3 kmh 29.62 in1003.0 mb - 0.01 in0.3 mm 0.12 in3.0 mm
06:20 AM 54.6°F12.6°C 47.9°F8.8°C 78% 4.6 mph WSW7.4 kmh WSW 5.8 mph9.3 kmh 29.62 in1003.0 mb - 0.01 in0.3 mm 0.12 in3.0 mm
06:25 AM 54.7°F12.6°C 48.0°F8.9°C 78% 3.5 mph WSW5.6 kmh WSW 4.6 mph7.4 kmh 29.62 in1003.0 mb - 0.00 in0.0 mm 0.12 in3.0 mm
06:30 AM 54.6°F12.6°C 47.9°F8.8°C 78% 3.5 mph WSW5.6 kmh WSW 6.9 mph11.1 kmh 29.63 in1003.4 mb - 0.00 in0.0 mm 0.12 in3.0 mm
06:35 AM 54.7°F12.6°C 48.0°F8.9°C 78% 3.5 mph SW5.6 kmh SW 6.9 mph11.1 kmh 29.63 in1003.4 mb - 0.01 in0.3 mm 0.13 in3.3 mm
06:40 AM 54.7°F12.6°C 48.0°F8.9°C 78% 3.5 mph WSW5.6 kmh WSW 8.1 mph13.0 kmh 29.63 in1003.4 mb - 0.01 in0.3 mm 0.14 in3.6 mm
06:45 AM 54.7°F12.6°C 48.0°F8.9°C 78% 3.5 mph WSW5.6 kmh WSW 3.5 mph5.6 kmh 29.63 in1003.4 mb - 0.00 in0.0 mm 0.14 in3.6 mm
06:50 AM 54.7°F12.6°C 48.0°F8.9°C 78% 2.3 mph SW3.7 kmh SW 6.9 mph11.1 kmh 29.63 in1003.4 mb - 0.01 in0.3 mm 0.15 in3.8 mm
06:55 AM 54.7°F12.6°C 48.0°F8.9°C 78% 2.3 mph WSW3.7 kmh WSW 9.2 mph14.8 kmh 29.63 in1003.4 mb - 0.01 in0.3 mm 0.16 in4.1 mm
07:00 AM 54.7°F12.6°C 48.0°F8.9°C 78% 2.3 mph W3.7 kmh W 6.9 mph11.1 kmh 29.63 in1003.4 mb - 0.00 in0.0 mm 0.16 in4.1 mm
07:05 AM 54.7°F12.6°C 48.0°F8.9°C 78% 2.3 mph W3.7 kmh W 3.5 mph5.6 kmh 29.63 in1003.4 mb - 0.00 in0.0 mm 0.16 in4.1 mm
07:10 AM 54.7°F12.6°C 48.0°F8.9°C 78% 3.5 mph SW5.6 kmh SW 9.2 mph14.8 kmh 29.63 in1003.4 mb - 0.00 in0.0 mm 0.16 in4.1 mm
07:15 AM 54.7°F12.6°C 48.0°F8.9°C 78% 2.3 mph SW3.7 kmh SW 5.8 mph9.3 kmh 29.64 in1003.7 mb - 0.00 in0.0 mm 0.16 in4.1 mm
07:20 AM 54.7°F12.6°C 48.0°F8.9°C 78% 3.5 mph SW5.6 kmh SW 11.5 mph18.5 kmh 29.64 in1003.7 mb - 0.00 in0.0 mm 0.16 in4.1 mm
07:25 AM 54.8°F12.7°C 48.1°F8.9°C 78% 6.9 mph WSW11.1 kmh WSW 10.4 mph16.7 kmh 29.64 in1003.7 mb - 0.00 in0.0 mm 0.16 in4.1 mm
07:30 AM 55.0°F12.8°C 48.2°F9.0°C 78% 5.8 mph WSW9.3 kmh WSW 9.2 mph14.8 kmh 29.64 in1003.7 mb - 0.00 in0.0 mm 0.16 in4.1 mm
07:35 AM 55.0°F12.8°C 48.3°F9.1°C 78% 3.5 mph SW5.6 kmh SW 9.2 mph14.8 kmh 29.64 in1003.7 mb - 0.00 in0.0 mm 0.16 in4.1 mm
07:40 AM 55.0°F12.8°C 48.3°F9.1°C 78% 2.3 mph SSW3.7 kmh SSW 5.8 mph9.3 kmh 29.65 in1004.1 mb - 0.00 in0.0 mm 0.16 in4.1 mm
07:45 AM 55.0°F12.8°C 48.3°F9.1°C 78% 3.5 mph WSW5.6 kmh WSW 6.9 mph11.1 kmh 29.65 in1004.1 mb - 0.01 in0.3 mm 0.17 in4.3 mm
07:50 AM 55.0°F12.8°C 48.3°F9.1°C 78% 6.9 mph WSW11.1 kmh WSW 11.5 mph18.5 kmh 29.65 in1004.1 mb - 0.00 in0.0 mm 0.17 in4.3 mm
07:55 AM 55.1°F12.8°C 48.4°F9.1°C 78% 8.1 mph SW13.0 kmh SW 13.8 mph22.2 kmh 29.65 in1004.1 mb - 0.00 in0.0 mm 0.17 in4.3 mm
08:00 AM 55.2°F12.9°C 48.5°F9.2°C 78% 6.9 mph SW11.1 kmh SW 11.5 mph18.5 kmh 29.65 in1004.1 mb - 0.00 in0.0 mm 0.17 in4.3 mm
08:05 AM 55.3°F12.9°C 48.5°F9.2°C 78% 6.9 mph SW11.1 kmh SW 11.5 mph18.5 kmh 29.65 in1004.1 mb - 0.00 in0.0 mm 0.17 in4.3 mm
08:10 AM 55.3°F12.9°C 48.6°F9.2°C 78% 6.9 mph SW11.1 kmh SW 10.4 mph16.7 kmh 29.66 in1004.4 mb - 0.00 in0.0 mm 0.17 in4.3 mm
08:15 AM 55.4°F13.0°C 48.3°F9.1°C 77% 5.8 mph WSW9.3 kmh WSW 15.0 mph24.1 kmh 29.66 in1004.4 mb - 0.00 in0.0 mm 0.17 in4.3 mm
08:20 AM 55.5°F13.1°C 48.4°F9.1°C 77% 8.1 mph SW13.0 kmh SW 11.5 mph18.5 kmh 29.66 in1004.4 mb - 0.00 in0.0 mm 0.17 in4.3 mm
08:25 AM 55.5°F13.1°C 48.4°F9.1°C 77% 6.9 mph WSW11.1 kmh WSW 8.1 mph13.0 kmh 29.66 in1004.4 mb - 0.00 in0.0 mm 0.17 in4.3 mm
08:30 AM 55.5°F13.1°C 48.4°F9.1°C 77% 9.2 mph SW14.8 kmh SW 16.1 mph25.9 kmh 29.66 in1004.4 mb - 0.00 in0.0 mm 0.17 in4.3 mm
08:35 AM 55.4°F13.0°C 48.3°F9.1°C 77% 5.8 mph WSW9.3 kmh WSW 13.8 mph22.2 kmh 29.66 in1004.4 mb - 0.00 in0.0 mm 0.17 in4.3 mm
08:40 AM 55.5°F13.1°C 48.4°F9.1°C 77% 11.5 mph WSW18.5 kmh WSW 18.4 mph29.6 kmh 29.66 in1004.4 mb - 0.00 in0.0 mm 0.17 in4.3 mm
08:45 AM 55.5°F13.1°C 48.4°F9.1°C 77% 5.8 mph WSW9.3 kmh WSW 11.5 mph18.5 kmh 29.66 in1004.4 mb - 0.00 in0.0 mm 0.17 in4.3 mm
08:50 AM 55.5°F13.1°C 48.4°F9.1°C 77% 8.1 mph SW13.0 kmh SW 15.0 mph24.1 kmh 29.66 in1004.4 mb - 0.00 in0.0 mm 0.17 in4.3 mm
08:55 AM 55.5°F13.1°C 48.4°F9.1°C 77% 6.9 mph SW11.1 kmh SW 10.4 mph16.7 kmh 29.66 in1004.4 mb - 0.00 in0.0 mm 0.17 in4.3 mm
09:00 AM 55.6°F13.1°C 48.5°F9.2°C 77% 6.9 mph SW11.1 kmh SW 11.5 mph18.5 kmh 29.66 in1004.4 mb - 0.00 in0.0 mm 0.17 in4.3 mm
09:05 AM 55.6°F13.1°C 48.5°F9.2°C 77% 9.2 mph SW14.8 kmh SW 24.2 mph38.9 kmh 29.66 in1004.4 mb - 0.00 in0.0 mm 0.17 in4.3 mm
09:10 AM 55.6°F13.1°C 48.5°F9.2°C 77% 6.9 mph SW11.1 kmh SW 10.4 mph16.7 kmh 29.66 in1004.4 mb - 0.00 in0.0 mm 0.17 in4.3 mm
09:15 AM 55.6°F13.1°C 48.5°F9.2°C 77% 5.8 mph SW9.3 kmh SW 11.5 mph18.5 kmh 29.66 in1004.4 mb - 0.00 in0.0 mm 0.17 in4.3 mm
09:20 AM 55.6°F13.1°C 48.5°F9.2°C 77% 10.4 mph SW16.7 kmh SW 17.3 mph27.8 kmh 29.66 in1004.4 mb - 0.00 in0.0 mm 0.17 in4.3 mm
09:25 AM 55.7°F13.2°C 48.6°F9.2°C 77% 11.5 mph WSW18.5 kmh WSW 17.3 mph27.8 kmh 29.66 in1004.4 mb - 0.00 in0.0 mm 0.17 in4.3 mm
09:30 AM 55.8°F13.2°C 48.7°F9.3°C 77% 11.5 mph SW18.5 kmh SW 16.1 mph25.9 kmh 29.66 in1004.4 mb - 0.00 in0.0 mm 0.17 in4.3 mm
09:35 AM 55.9°F13.3°C 48.8°F9.3°C 77% 8.1 mph SW13.0 kmh SW 15.0 mph24.1 kmh 29.66 in1004.4 mb - 0.00 in0.0 mm 0.17 in4.3 mm
09:40 AM 56.0°F13.3°C 48.8°F9.3°C 77% 8.1 mph SW13.0 kmh SW 15.0 mph24.1 kmh 29.67 in1004.7 mb - 0.00 in0.0 mm 0.17 in4.3 mm
09:45 AM 56.0°F13.3°C 48.9°F9.4°C 77% 5.8 mph SW9.3 kmh SW 13.8 mph22.2 kmh 29.67 in1004.7 mb - 0.00 in0.0 mm 0.17 in4.3 mm
09:50 AM 56.0°F13.3°C 48.9°F9.4°C 77% 6.9 mph WSW11.1 kmh WSW 11.5 mph18.5 kmh 29.67 in1004.7 mb - 0.00 in0.0 mm 0.17 in4.3 mm
09:55 AM 56.0°F13.3°C 48.9°F9.4°C 77% 8.1 mph SW13.0 kmh SW 11.5 mph18.5 kmh 29.67 in1004.7 mb - 0.00 in0.0 mm 0.17 in4.3 mm
10:00 AM 56.0°F13.3°C 48.9°F9.4°C 77% 4.6 mph WSW7.4 kmh WSW 5.8 mph9.3 kmh 29.67 in1004.7 mb - 0.00 in0.0 mm 0.17 in4.3 mm
10:05 AM 55.9°F13.3°C 48.8°F9.3°C 77% 3.5 mph SW5.6 kmh SW 8.1 mph13.0 kmh 29.67 in1004.7 mb - 0.00 in0.0 mm 0.17 in4.3 mm
10:10 AM 55.9°F13.3°C 48.8°F9.3°C 77% 6.9 mph WSW11.1 kmh WSW 12.7 mph20.4 kmh 29.67 in1004.7 mb - 0.00 in0.0 mm 0.17 in4.3 mm
10:15 AM 55.8°F13.2°C 48.7°F9.3°C 77% 5.8 mph SW9.3 kmh SW 10.4 mph16.7 kmh 29.68 in1005.1 mb - 0.01 in0.3 mm 0.17 in4.3 mm
10:20 AM 55.8°F13.2°C 48.7°F9.3°C 77% 5.8 mph SW9.3 kmh SW 11.5 mph18.5 kmh 29.67 in1004.7 mb - 0.00 in0.0 mm 0.17 in4.3 mm
10:25 AM 55.7°F13.2°C 48.6°F9.2°C 77% 6.9 mph WSW11.1 kmh WSW 9.2 mph14.8 kmh 29.67 in1004.7 mb - 0.00 in0.0 mm 0.17 in4.3 mm
10:30 AM 55.7°F13.2°C 48.6°F9.2°C 77% 4.6 mph WSW7.4 kmh WSW 10.4 mph16.7 kmh 29.68 in1005.1 mb - 0.01 in0.3 mm 0.18 in4.6 mm
10:35 AM 55.8°F13.2°C 48.7°F9.3°C 77% 6.9 mph WSW11.1 kmh WSW 9.2 mph14.8 kmh 29.68 in1005.1 mb - 0.00 in0.0 mm 0.18 in4.6 mm
10:40 AM 55.8°F13.2°C 48.7°F9.3°C 77% 8.1 mph SW13.0 kmh SW 10.4 mph16.7 kmh 29.68 in1005.1 mb - 0.00 in0.0 mm 0.18 in4.6 mm
10:45 AM 55.8°F13.2°C 48.7°F9.3°C 77% 6.9 mph SW11.1 kmh SW 10.4 mph16.7 kmh 29.68 in1005.1 mb - 0.00 in0.0 mm 0.18 in4.6 mm
10:50 AM 55.8°F13.2°C 48.7°F9.3°C 77% 4.6 mph WNW7.4 kmh WNW 6.9 mph11.1 kmh 29.68 in1005.1 mb - 0.00 in0.0 mm 0.18 in4.6 mm
10:55 AM 55.8°F13.2°C 48.7°F9.3°C 77% 5.8 mph WSW9.3 kmh WSW 9.2 mph14.8 kmh 29.68 in1005.1 mb - 0.01 in0.3 mm 0.19 in4.8 mm
11:00 AM 55.7°F13.2°C 48.6°F9.2°C 77% 5.8 mph WSW9.3 kmh WSW 11.5 mph18.5 kmh 29.68 in1005.1 mb - 0.00 in0.0 mm 0.19 in4.8 mm
11:05 AM 55.7°F13.2°C 48.6°F9.2°C 77% 2.3 mph SW3.7 kmh SW 13.8 mph22.2 kmh 29.68 in1005.1 mb - 0.00 in0.0 mm 0.19 in4.8 mm
11:10 AM 55.7°F13.2°C 48.9°F9.4°C 78% 3.5 mph SW5.6 kmh SW 8.1 mph13.0 kmh 29.68 in1005.1 mb - 0.00 in0.0 mm 0.19 in4.8 mm
11:15 AM 55.7°F13.2°C 48.9°F9.4°C 78% 9.2 mph WSW14.8 kmh WSW 11.5 mph18.5 kmh 29.69 in1005.4 mb - 0.01 in0.3 mm 0.20 in5.1 mm
11:20 AM 55.7°F13.2°C 48.9°F9.4°C 78% 5.8 mph SW9.3 kmh SW 6.9 mph11.1 kmh 29.68 in1005.1 mb - 0.00 in0.0 mm 0.20 in5.1 mm
11:25 AM 55.8°F13.2°C 49.0°F9.4°C 78% 8.1 mph SSW13.0 kmh SSW 10.4 mph16.7 kmh 29.68 in1005.1 mb - 0.01 in0.3 mm 0.21 in5.3 mm
11:30 AM 55.8°F13.2°C 49.0°F9.4°C 78% 3.5 mph WSW5.6 kmh WSW 6.9 mph11.1 kmh 29.68 in1005.1 mb - 0.00 in0.0 mm 0.21 in5.3 mm
11:35 AM 55.7°F13.2°C 49.0°F9.4°C 78% 4.6 mph W7.4 kmh W 9.2 mph14.8 kmh 29.68 in1005.1 mb - 0.01 in0.3 mm 0.22 in5.6 mm
11:40 AM 55.7°F13.2°C 49.0°F9.4°C 78% 4.6 mph WSW7.4 kmh WSW 4.6 mph7.4 kmh 29.68 in1005.1 mb - 0.00 in0.0 mm 0.22 in5.6 mm
11:45 AM 55.7°F13.2°C 48.9°F9.4°C 78% 3.5 mph SSW5.6 kmh SSW 4.6 mph7.4 kmh 29.68 in1005.1 mb - 0.00 in0.0 mm 0.22 in5.6 mm
11:50 AM 55.7°F13.2°C 48.9°F9.4°C 78% 3.5 mph WSW5.6 kmh WSW 9.2 mph14.8 kmh 29.68 in1005.1 mb - 0.00 in0.0 mm 0.22 in5.6 mm
11:55 AM 55.7°F13.2°C 48.9°F9.4°C 78% 5.8 mph SW9.3 kmh SW 11.5 mph18.5 kmh 29.68 in1005.1 mb - 0.00 in0.0 mm 0.22 in5.6 mm
12:00 PM 55.7°F13.2°C 48.9°F9.4°C 78% 9.2 mph SW14.8 kmh SW 12.7 mph20.4 kmh 29.68 in1005.1 mb - 0.00 in0.0 mm 0.22 in5.6 mm
12:05 PM 55.8°F13.2°C 49.0°F9.4°C 78% 8.1 mph WSW13.0 kmh WSW 19.6 mph31.5 kmh 29.68 in1005.1 mb - 0.00 in0.0 mm 0.22 in5.6 mm
12:10 PM 55.8°F13.2°C 49.1°F9.5°C 78% 5.8 mph SW9.3 kmh SW 8.1 mph13.0 kmh 29.69 in1005.4 mb - 0.00 in0.0 mm 0.22 in5.6 mm
12:15 PM 55.9°F13.3°C 49.1°F9.5°C 78% 3.5 mph WSW5.6 kmh WSW 8.1 mph13.0 kmh 29.69 in1005.4 mb - 0.00 in0.0 mm 0.22 in5.6 mm
12:20 PM 55.9°F13.3°C 49.1°F9.5°C 78% 3.5 mph WSW5.6 kmh WSW 11.5 mph18.5 kmh 29.69 in1005.4 mb - 0.00 in0.0 mm 0.22 in5.6 mm
12:25 PM 55.9°F13.3°C 49.1°F9.5°C 78% 8.1 mph SW13.0 kmh SW 17.3 mph27.8 kmh 29.69 in1005.4 mb - 0.00 in0.0 mm 0.22 in5.6 mm
12:30 PM 55.9°F13.3°C 49.1°F9.5°C 78% 9.2 mph SW14.8 kmh SW 12.7 mph20.4 kmh 29.68 in1005.1 mb - 0.00 in0.0 mm 0.22 in5.6 mm
12:35 PM 55.9°F13.3°C 49.2°F9.6°C 78% 5.8 mph WSW9.3 kmh WSW 6.9 mph11.1 kmh 29.69 in1005.4 mb - 0.01 in0.3 mm 0.22 in5.6 mm
12:40 PM 56.0°F13.3°C 49.2°F9.6°C 78% 4.6 mph SW7.4 kmh SW 6.9 mph11.1 kmh 29.69 in1005.4 mb - 0.00 in0.0 mm 0.22 in5.6 mm
12:45 PM 56.0°F13.3°C 49.3°F9.6°C 78% 5.8 mph SW9.3 kmh SW 11.5 mph18.5 kmh 29.69 in1005.4 mb - 0.00 in0.0 mm 0.22 in5.6 mm
12:50 PM 56.1°F13.4°C 49.3°F9.6°C 78% 6.9 mph SW11.1 kmh SW 8.1 mph13.0 kmh 29.69 in1005.4 mb - 0.00 in0.0 mm 0.22 in5.6 mm
12:55 PM 56.2°F13.4°C 49.1°F9.5°C 77% 6.9 mph SW11.1 kmh SW 11.5 mph18.5 kmh 29.69 in1005.4 mb - 0.00 in0.0 mm 0.22 in5.6 mm
01:00 PM 56.3°F13.5°C 49.2°F9.6°C 77% 8.1 mph SW13.0 kmh SW 13.8 mph22.2 kmh 29.69 in1005.4 mb - 0.00 in0.0 mm 0.22 in5.6 mm
01:05 PM 56.4°F13.6°C 49.3°F9.6°C 77% 8.1 mph SW13.0 kmh SW 13.8 mph22.2 kmh 29.69 in1005.4 mb - 0.00 in0.0 mm 0.22 in5.6 mm
01:10 PM 56.4°F13.6°C 49.3°F9.6°C 77% 6.9 mph SW11.1 kmh SW 11.5 mph18.5 kmh 29.69 in1005.4 mb - 0.00 in0.0 mm 0.22 in5.6 mm
01:15 PM 56.4°F13.6°C 49.3°F9.6°C 77% 11.5 mph SW18.5 kmh SW 18.4 mph29.6 kmh 29.69 in1005.4 mb - 0.00 in0.0 mm 0.22 in5.6 mm
01:20 PM 56.4°F13.6°C 49.3°F9.6°C 77% 10.4 mph SW16.7 kmh SW 13.8 mph22.2 kmh 29.69 in1005.4 mb - 0.00 in0.0 mm 0.22 in5.6 mm
01:25 PM 56.4°F13.6°C 49.3°F9.6°C 77% 6.9 mph WSW11.1 kmh WSW 11.5 mph18.5 kmh 29.69 in1005.4 mb - 0.00 in0.0 mm 0.22 in5.6 mm
01:30 PM 56.4°F13.6°C 49.3°F9.6°C 77% 5.8 mph WSW9.3 kmh WSW 15.0 mph24.1 kmh 29.69 in1005.4 mb - 0.00 in0.0 mm 0.22 in5.6 mm
01:35 PM 56.4°F13.6°C 49.3°F9.6°C 77% 5.8 mph WSW9.3 kmh WSW 11.5 mph18.5 kmh 29.69 in1005.4 mb - 0.00 in0.0 mm 0.22 in5.6 mm
01:40 PM 56.6°F13.7°C 49.5°F9.7°C 77% 6.9 mph WSW11.1 kmh WSW 10.4 mph16.7 kmh 29.69 in1005.4 mb - 0.00 in0.0 mm 0.22 in5.6 mm
01:45 PM 56.6°F13.7°C 49.5°F9.7°C 77% 9.2 mph WSW14.8 kmh WSW 12.7 mph20.4 kmh 29.69 in1005.4 mb - 0.00 in0.0 mm 0.22 in5.6 mm
01:50 PM 56.7°F13.7°C 49.6°F9.8°C 77% 4.6 mph WSW7.4 kmh WSW 11.5 mph18.5 kmh 29.69 in1005.4 mb - 0.00 in0.0 mm 0.22 in5.6 mm
01:55 PM 56.7°F13.7°C 49.6°F9.8°C 77% 5.8 mph WSW9.3 kmh WSW 11.5 mph18.5 kmh 29.69 in1005.4 mb - 0.00 in0.0 mm 0.22 in5.6 mm
02:00 PM 56.8°F13.8°C 49.7°F9.8°C 77% 8.1 mph WSW13.0 kmh WSW 13.8 mph22.2 kmh 29.69 in1005.4 mb - 0.00 in0.0 mm 0.22 in5.6 mm
02:05 PM 57.0°F13.9°C 49.8°F9.9°C 77% 4.6 mph WSW7.4 kmh WSW 11.5 mph18.5 kmh 29.69 in1005.4 mb - 0.00 in0.0 mm 0.22 in5.6 mm
02:10 PM 57.2°F14.0°C 50.1°F10.1°C 77% 6.9 mph WSW11.1 kmh WSW 11.5 mph18.5 kmh 29.69 in1005.4 mb - 0.00 in0.0 mm 0.22 in5.6 mm
02:15 PM 57.3°F14.1°C 50.1°F10.1°C 77% 6.9 mph WSW11.1 kmh WSW 13.8 mph22.2 kmh 29.69 in1005.4 mb - 0.00 in0.0 mm 0.22 in5.6 mm
02:20 PM 57.4°F14.1°C 50.2°F10.1°C 77% 6.9 mph WSW11.1 kmh WSW 11.5 mph18.5 kmh 29.69 in1005.4 mb - 0.00 in0.0 mm 0.22 in5.6 mm
02:25 PM 57.4°F14.1°C 50.2°F10.1°C 77% 4.6 mph WSW7.4 kmh WSW 6.9 mph11.1 kmh 29.69 in1005.4 mb - 0.00 in0.0 mm 0.22 in5.6 mm
02:30 PM 57.3°F14.1°C 50.1°F10.1°C 77% 9.2 mph WSW14.8 kmh WSW 11.5 mph18.5 kmh 29.69 in1005.4 mb - 0.00 in0.0 mm 0.22 in5.6 mm
02:35 PM 57.3°F14.1°C 50.1°F10.1°C 77% 3.5 mph WSW5.6 kmh WSW 5.8 mph9.3 kmh 29.69 in1005.4 mb - 0.00 in0.0 mm 0.22 in5.6 mm
02:40 PM 57.3°F14.1°C 50.1°F10.1°C 77% 5.8 mph WSW9.3 kmh WSW 6.9 mph11.1 kmh 29.69 in1005.4 mb - 0.00 in0.0 mm 0.22 in5.6 mm
02:45 PM 57.2°F14.0°C 50.1°F10.1°C 77% 2.3 mph SW3.7 kmh SW 6.9 mph11.1 kmh 29.69 in1005.4 mb - 0.00 in0.0 mm 0.22 in5.6 mm
02:50 PM 57.1°F13.9°C 50.0°F10.0°C 77% 3.5 mph WSW5.6 kmh WSW 8.1 mph13.0 kmh 29.70 in1005.8 mb - 0.01 in0.3 mm 0.23 in5.8 mm
02:55 PM 57.0°F13.9°C 49.8°F9.9°C 77% 2.3 mph WSW3.7 kmh WSW 6.9 mph11.1 kmh 29.70 in1005.8 mb - 0.00 in0.0 mm 0.23 in5.8 mm
03:00 PM 56.8°F13.8°C 49.7°F9.8°C 77% 1.2 mph SW1.9 kmh SW 3.5 mph5.6 kmh 29.70 in1005.8 mb - 0.00 in0.0 mm 0.23 in5.8 mm
03:05 PM 56.7°F13.7°C 49.6°F9.8°C 77% 3.5 mph SW5.6 kmh SW 9.2 mph14.8 kmh 29.70 in1005.8 mb - 0.01 in0.3 mm 0.24 in6.1 mm
03:10 PM 56.6°F13.7°C 49.5°F9.7°C 77% 2.3 mph N3.7 kmh N 3.5 mph5.6 kmh 29.69 in1005.4 mb - 0.00 in0.0 mm 0.24 in6.1 mm
03:15 PM 56.5°F13.6°C 49.4°F9.7°C 77% 2.3 mph SW3.7 kmh SW 3.5 mph5.6 kmh 29.69 in1005.4 mb - 0.00 in0.0 mm 0.24 in6.1 mm
03:20 PM 56.4°F13.6°C 49.3°F9.6°C 77% 1.2 mph N1.9 kmh N 3.5 mph5.6 kmh 29.70 in1005.8 mb - 0.00 in0.0 mm 0.24 in6.1 mm
03:25 PM 56.3°F13.5°C 49.2°F9.6°C 77% Calm Calm -- 29.70 in1005.8 mb - 0.00 in0.0 mm 0.24 in6.1 mm
03:30 PM 56.3°F13.5°C 49.2°F9.6°C 77% 2.3 mph W3.7 kmh W 3.5 mph5.6 kmh 29.70 in1005.8 mb - 0.00 in0.0 mm 0.24 in6.1 mm
03:35 PM 56.2°F13.4°C 49.1°F9.5°C 77% 2.3 mph WSW3.7 kmh WSW 3.5 mph5.6 kmh 29.70 in1005.8 mb - 0.00 in0.0 mm 0.24 in6.1 mm
03:40 PM 56.3°F13.5°C 49.2°F9.6°C 77% 8.1 mph WSW13.0 kmh WSW 9.2 mph14.8 kmh 29.69 in1005.4 mb - 0.00 in0.0 mm 0.24 in6.1 mm
03:45 PM 56.3°F13.5°C 49.2°F9.6°C 77% 2.3 mph W3.7 kmh W 3.5 mph5.6 kmh 29.70 in1005.8 mb - 0.00 in0.0 mm 0.24 in6.1 mm
03:50 PM 56.4°F13.6°C 49.3°F9.6°C 77% 1.2 mph NNE1.9 kmh NNE 3.5 mph5.6 kmh 29.70 in1005.8 mb - 0.00 in0.0 mm 0.24 in6.1 mm
03:55 PM 56.5°F13.6°C 49.4°F9.7°C 77% 2.3 mph NW3.7 kmh NW 3.5 mph5.6 kmh 29.70 in1005.8 mb - 0.00 in0.0 mm 0.24 in6.1 mm
04:00 PM 56.5°F13.6°C 49.4°F9.7°C 77% 1.2 mph SW1.9 kmh SW 2.3 mph3.7 kmh 29.70 in1005.8 mb - 0.00 in0.0 mm 0.24 in6.1 mm
04:05 PM 56.5°F13.6°C 49.4°F9.7°C 77% Calm Calm -- 29.70 in1005.8 mb - 0.00 in0.0 mm 0.24 in6.1 mm
04:10 PM 56.6°F13.7°C 49.5°F9.7°C 77% 1.2 mph ENE1.9 kmh ENE 2.3 mph3.7 kmh 29.70 in1005.8 mb - 0.00 in0.0 mm 0.24 in6.1 mm
04:15 PM 56.6°F13.7°C 49.5°F9.7°C 77% Calm Calm -- 29.70 in1005.8 mb - 0.00 in0.0 mm 0.24 in6.1 mm
04:20 PM 56.6°F13.7°C 49.5°F9.7°C 77% Calm Calm -- 29.71 in1006.1 mb - 0.00 in0.0 mm 0.24 in6.1 mm
04:25 PM 56.6°F13.7°C 49.5°F9.7°C 77% Calm Calm -- 29.71 in1006.1 mb - 0.00 in0.0 mm 0.24 in6.1 mm
04:30 PM 56.6°F13.7°C 49.5°F9.7°C 77% Calm Calm 3.5 mph5.6 kmh 29.71 in1006.1 mb - 0.00 in0.0 mm 0.24 in6.1 mm
04:35 PM 56.9°F13.8°C 49.8°F9.9°C 77% 3.5 mph S5.6 kmh S 3.5 mph5.6 kmh 29.72 in1006.4 mb - 0.00 in0.0 mm 0.24 in6.1 mm
04:40 PM 57.1°F13.9°C 50.0°F10.0°C 77% 3.5 mph S5.6 kmh S 4.6 mph7.4 kmh 29.72 in1006.4 mb - 0.00 in0.0 mm 0.24 in6.1 mm
04:45 PM 57.3°F14.1°C 50.1°F10.1°C 77% 2.3 mph SSW3.7 kmh SSW 3.5 mph5.6 kmh 29.72 in1006.4 mb - 0.00 in0.0 mm 0.24 in6.1 mm
04:50 PM 57.3°F14.1°C 50.1°F10.1°C 77% 3.5 mph SW5.6 kmh SW 3.5 mph5.6 kmh 29.72 in1006.4 mb - 0.00 in0.0 mm 0.24 in6.1 mm
04:55 PM 57.4°F14.1°C 50.2°F10.1°C 77% 1.2 mph S1.9 kmh S -- 29.72 in1006.4 mb - 0.00 in0.0 mm 0.24 in6.1 mm
05:00 PM 57.4°F14.1°C 50.2°F10.1°C 77% 4.6 mph S7.4 kmh S 5.8 mph9.3 kmh 29.72 in1006.4 mb - 0.00 in0.0 mm 0.24 in6.1 mm
05:05 PM 57.4°F14.1°C 50.2°F10.1°C 77% 2.3 mph SW3.7 kmh SW 3.5 mph5.6 kmh 29.72 in1006.4 mb - 0.00 in0.0 mm 0.24 in6.1 mm
05:10 PM 57.4°F14.1°C 50.2°F10.1°C 77% 2.3 mph SW3.7 kmh SW 4.6 mph7.4 kmh 29.73 in1006.8 mb - 0.00 in0.0 mm 0.24 in6.1 mm
05:15 PM 57.4°F14.1°C 50.2°F10.1°C 77% 3.5 mph SSW5.6 kmh SSW 4.6 mph7.4 kmh 29.73 in1006.8 mb - 0.00 in0.0 mm 0.24 in6.1 mm
05:20 PM 57.4°F14.1°C 50.2°F10.1°C 77% 3.5 mph SSW5.6 kmh SSW 4.6 mph7.4 kmh 29.73 in1006.8 mb - 0.00 in0.0 mm 0.24 in6.1 mm
05:25 PM 57.4°F14.1°C 50.2°F10.1°C 77% 4.6 mph SW7.4 kmh SW 8.1 mph13.0 kmh 29.73 in1006.8 mb - 0.00 in0.0 mm 0.24 in6.1 mm
05:30 PM 57.4°F14.1°C 50.2°F10.1°C 77% 3.5 mph WSW5.6 kmh WSW 4.6 mph7.4 kmh 29.73 in1006.8 mb - 0.00 in0.0 mm 0.24 in6.1 mm
05:35 PM 57.3°F14.1°C 50.1°F10.1°C 77% 3.5 mph SW5.6 kmh SW 11.5 mph18.5 kmh 29.73 in1006.8 mb - 0.00 in0.0 mm 0.24 in6.1 mm
05:40 PM 57.3°F14.1°C 50.1°F10.1°C 77% 4.6 mph SW7.4 kmh SW 9.2 mph14.8 kmh 29.73 in1006.8 mb - 0.00 in0.0 mm 0.24 in6.1 mm
05:45 PM 57.4°F14.1°C 50.2°F10.1°C 77% 4.6 mph WSW7.4 kmh WSW 8.1 mph13.0 kmh 29.73 in1006.8 mb - 0.00 in0.0 mm 0.24 in6.1 mm
05:50 PM 57.5°F14.2°C 50.4°F10.2°C 77% 6.9 mph SW11.1 kmh SW 9.2 mph14.8 kmh 29.74 in1007.1 mb - 0.00 in0.0 mm 0.24 in6.1 mm
05:55 PM 57.7°F14.3°C 50.5°F10.3°C 77% 5.8 mph WSW9.3 kmh WSW 10.4 mph16.7 kmh 29.74 in1007.1 mb - 0.00 in0.0 mm 0.24 in6.1 mm
06:00 PM 57.8°F14.3°C 50.6°F10.3°C 77% 8.1 mph SW13.0 kmh SW 11.5 mph18.5 kmh 29.75 in1007.5 mb - 0.00 in0.0 mm 0.24 in6.1 mm
06:05 PM 57.8°F14.3°C 50.6°F10.3°C 77% 4.6 mph WSW7.4 kmh WSW 12.7 mph20.4 kmh 29.75 in1007.5 mb - 0.00 in0.0 mm 0.24 in6.1 mm
06:10 PM 57.9°F14.4°C 50.7°F10.4°C 77% 4.6 mph WSW7.4 kmh WSW 8.1 mph13.0 kmh 29.75 in1007.5 mb - 0.00 in0.0 mm 0.24 in6.1 mm
06:15 PM 57.9°F14.4°C 50.7°F10.4°C 77% 3.5 mph SW5.6 kmh SW 3.5 mph5.6 kmh 29.75 in1007.5 mb - 0.00 in0.0 mm 0.24 in6.1 mm
06:20 PM 57.8°F14.3°C 50.6°F10.3°C 77% 1.2 mph WSW1.9 kmh WSW 3.5 mph5.6 kmh 29.75 in1007.5 mb - 0.00 in0.0 mm 0.24 in6.1 mm
06:25 PM 57.7°F14.3°C 50.6°F10.3°C 77% 3.5 mph SW5.6 kmh SW 3.5 mph5.6 kmh 29.75 in1007.5 mb - 0.00 in0.0 mm 0.24 in6.1 mm
06:30 PM 57.6°F14.2°C 50.4°F10.2°C 77% 3.5 mph WSW5.6 kmh WSW 3.5 mph5.6 kmh 29.75 in1007.5 mb - 0.00 in0.0 mm 0.24 in6.1 mm
06:35 PM 57.6°F14.2°C 50.4°F10.2°C 77% 2.3 mph SW3.7 kmh SW 4.6 mph7.4 kmh 29.76 in1007.8 mb - 0.00 in0.0 mm 0.24 in6.1 mm
06:40 PM 57.5°F14.2°C 50.3°F10.2°C 77% 2.3 mph WSW3.7 kmh WSW 3.5 mph5.6 kmh 29.76 in1007.8 mb - 0.00 in0.0 mm 0.24 in6.1 mm
06:45 PM 57.4°F14.1°C 50.2°F10.1°C 77% 2.3 mph SW3.7 kmh SW 3.5 mph5.6 kmh 29.76 in1007.8 mb - 0.00 in0.0 mm 0.24 in6.1 mm
06:50 PM 57.3°F14.1°C 50.1°F10.1°C 77% 4.6 mph SW7.4 kmh SW 6.9 mph11.1 kmh 29.77 in1008.1 mb - 0.00 in0.0 mm 0.24 in6.1 mm
06:55 PM 57.2°F14.0°C 50.0°F10.0°C 77% 5.8 mph S9.3 kmh S 8.1 mph13.0 kmh 29.77 in1008.1 mb - 0.00 in0.0 mm 0.24 in6.1 mm
07:00 PM 57.0°F13.9°C 49.9°F9.9°C 77% 4.6 mph SSW7.4 kmh SSW 10.4 mph16.7 kmh 29.77 in1008.1 mb - 0.00 in0.0 mm 0.24 in6.1 mm
07:05 PM 56.9°F13.8°C 49.7°F9.8°C 77% 2.3 mph SW3.7 kmh SW 6.9 mph11.1 kmh 29.77 in1008.1 mb - 0.00 in0.0 mm 0.24 in6.1 mm
07:10 PM 56.7°F13.7°C 49.6°F9.8°C 77% 3.5 mph SW5.6 kmh SW 6.9 mph11.1 kmh 29.77 in1008.1 mb - 0.00 in0.0 mm 0.24 in6.1 mm
07:15 PM 56.5°F13.6°C 49.4°F9.7°C 77% 2.3 mph SSW3.7 kmh SSW 5.8 mph9.3 kmh 29.77 in1008.1 mb - 0.00 in0.0 mm 0.24 in6.1 mm
07:20 PM 56.4°F13.6°C 49.3°F9.6°C 77% 3.5 mph SW5.6 kmh SW 8.1 mph13.0 kmh 29.77 in1008.1 mb - 0.00 in0.0 mm 0.24 in6.1 mm
07:25 PM 56.3°F13.5°C 49.2°F9.6°C 77% 2.3 mph SW3.7 kmh SW 3.5 mph5.6 kmh 29.77 in1008.1 mb - 0.00 in0.0 mm 0.24 in6.1 mm
07:30 PM 56.2°F13.4°C 49.1°F9.5°C 77% 2.3 mph WSW3.7 kmh WSW 3.5 mph5.6 kmh 29.78 in1008.5 mb - 0.00 in0.0 mm 0.24 in6.1 mm
07:35 PM 56.1°F13.4°C 49.0°F9.4°C 77% 1.2 mph WSW1.9 kmh WSW 3.5 mph5.6 kmh 29.78 in1008.5 mb - 0.00 in0.0 mm 0.24 in6.1 mm
07:40 PM 56.0°F13.3°C 49.2°F9.6°C 78% 1.2 mph SSW1.9 kmh SSW 3.5 mph5.6 kmh 29.78 in1008.5 mb - 0.00 in0.0 mm 0.24 in6.1 mm
07:45 PM 55.9°F13.3°C 48.8°F9.3°C 77% 2.3 mph S3.7 kmh S 4.6 mph7.4 kmh 29.78 in1008.5 mb - 0.00 in0.0 mm 0.24 in6.1 mm
07:50 PM 55.9°F13.3°C 48.8°F9.3°C 77% Calm Calm -- 29.79 in1008.8 mb - 0.00 in0.0 mm 0.24 in6.1 mm
07:55 PM 55.9°F13.3°C 49.1°F9.5°C 78% 2.3 mph SW3.7 kmh SW 3.5 mph5.6 kmh 29.79 in1008.8 mb - 0.00 in0.0 mm 0.24 in6.1 mm
08:00 PM 55.9°F13.3°C 49.1°F9.5°C 78% 2.3 mph SSW3.7 kmh SSW 3.5 mph5.6 kmh 29.79 in1008.8 mb - 0.00 in0.0 mm 0.24 in6.1 mm
08:05 PM 55.9°F13.3°C 49.1°F9.5°C 78% 2.3 mph SSW3.7 kmh SSW 3.5 mph5.6 kmh 29.79 in1008.8 mb - 0.00 in0.0 mm 0.24 in6.1 mm
08:10 PM 55.9°F13.3°C 49.1°F9.5°C 78% 1.2 mph SSW1.9 kmh SSW 1.2 mph1.9 kmh 29.80 in1009.1 mb - 0.00 in0.0 mm 0.24 in6.1 mm
08:15 PM 55.9°F13.3°C 48.8°F9.3°C 77% Calm Calm -- 29.80 in1009.1 mb - 0.00 in0.0 mm 0.24 in6.1 mm
08:20 PM 55.9°F13.3°C 49.1°F9.5°C 78% Calm Calm -- 29.80 in1009.1 mb - 0.00 in0.0 mm 0.24 in6.1 mm
08:25 PM 55.8°F13.2°C 49.1°F9.5°C 78% Calm Calm -- 29.80 in1009.1 mb - 0.00 in0.0 mm 0.24 in6.1 mm
08:30 PM 55.8°F13.2°C 49.0°F9.4°C 78% Calm Calm -- 29.80 in1009.1 mb - 0.00 in0.0 mm 0.24 in6.1 mm
08:35 PM 55.8°F13.2°C 49.0°F9.4°C 78% 2.3 mph SW3.7 kmh SW 3.5 mph5.6 kmh 29.80 in1009.1 mb - 0.00 in0.0 mm 0.24 in6.1 mm
08:40 PM 55.8°F13.2°C 49.0°F9.4°C 78% 2.3 mph SW3.7 kmh SW 2.3 mph3.7 kmh 29.80 in1009.1 mb - 0.00 in0.0 mm 0.24 in6.1 mm
08:45 PM 55.8°F13.2°C 49.0°F9.4°C 78% 1.2 mph SSW1.9 kmh SSW 3.5 mph5.6 kmh 29.81 in1009.5 mb - 0.00 in0.0 mm 0.24 in6.1 mm
08:50 PM 55.8°F13.2°C 49.0°F9.4°C 78% 2.3 mph S3.7 kmh S 3.5 mph5.6 kmh 29.81 in1009.5 mb - 0.00 in0.0 mm 0.24 in6.1 mm
08:55 PM 55.8°F13.2°C 49.0°F9.4°C 78% 2.3 mph S3.7 kmh S 3.5 mph5.6 kmh 29.81 in1009.5 mb - 0.00 in0.0 mm 0.24 in6.1 mm
09:00 PM 55.9°F13.3°C 49.1°F9.5°C 78% 2.3 mph S3.7 kmh S 3.5 mph5.6 kmh 29.81 in1009.5 mb - 0.00 in0.0 mm 0.24 in6.1 mm
09:05 PM 55.9°F13.3°C 49.1°F9.5°C 78% 3.5 mph SW5.6 kmh SW 3.5 mph5.6 kmh 29.81 in1009.5 mb - 0.00 in0.0 mm 0.24 in6.1 mm
09:10 PM 55.9°F13.3°C 49.1°F9.5°C 78% 2.3 mph SW3.7 kmh SW 3.5 mph5.6 kmh 29.81 in1009.5 mb - 0.00 in0.0 mm 0.24 in6.1 mm
09:15 PM 55.9°F13.3°C 49.1°F9.5°C 78% 2.3 mph S3.7 kmh S 3.5 mph5.6 kmh 29.82 in1009.8 mb - 0.00 in0.0 mm 0.24 in6.1 mm
09:20 PM 55.9°F13.3°C 49.1°F9.5°C 78% Calm Calm -- 29.82 in1009.8 mb - 0.00 in0.0 mm 0.24 in6.1 mm
09:25 PM 55.9°F13.3°C 49.1°F9.5°C 78% 1.2 mph SSW1.9 kmh SSW 1.2 mph1.9 kmh 29.82 in1009.8 mb - 0.00 in0.0 mm 0.24 in6.1 mm
09:30 PM 55.8°F13.2°C 49.1°F9.5°C 78% Calm Calm -- 29.82 in1009.8 mb - 0.00 in0.0 mm 0.24 in6.1 mm
09:35 PM 55.8°F13.2°C 49.0°F9.4°C 78% 1.2 mph NE1.9 kmh NE 2.3 mph3.7 kmh 29.82 in1009.8 mb - 0.00 in0.0 mm 0.24 in6.1 mm
09:40 PM 55.8°F13.2°C 49.0°F9.4°C 78% Calm Calm -- 29.82 in1009.8 mb - 0.00 in0.0 mm 0.24 in6.1 mm
09:45 PM 55.7°F13.2°C 48.9°F9.4°C 78% 1.2 mph NE1.9 kmh NE 2.3 mph3.7 kmh 29.82 in1009.8 mb - 0.00 in0.0 mm 0.24 in6.1 mm
09:50 PM 55.7°F13.2°C 48.9°F9.4°C 78% 2.3 mph ESE3.7 kmh ESE 3.5 mph5.6 kmh 29.82 in1009.8 mb - 0.00 in0.0 mm 0.24 in6.1 mm
09:55 PM 55.7°F13.2°C 49.0°F9.4°C 78% 2.3 mph ENE3.7 kmh ENE 2.3 mph3.7 kmh 29.82 in1009.8 mb - 0.00 in0.0 mm 0.24 in6.1 mm
10:00 PM 55.8°F13.2°C 49.0°F9.4°C 78% 1.2 mph NE1.9 kmh NE 3.5 mph5.6 kmh 29.82 in1009.8 mb - 0.00 in0.0 mm 0.24 in6.1 mm
10:05 PM 55.7°F13.2°C 48.9°F9.4°C 78% Calm Calm -- 29.82 in1009.8 mb - 0.00 in0.0 mm 0.24 in6.1 mm
10:10 PM 55.7°F13.2°C 48.9°F9.4°C 78% Calm Calm 2.3 mph3.7 kmh 29.82 in1009.8 mb - 0.00 in0.0 mm 0.24 in6.1 mm
10:15 PM 55.7°F13.2°C 48.9°F9.4°C 78% 2.3 mph ENE3.7 kmh ENE 3.5 mph5.6 kmh 29.82 in1009.8 mb - 0.00 in0.0 mm 0.24 in6.1 mm
10:20 PM 55.7°F13.2°C 48.9°F9.4°C 78% 4.6 mph E7.4 kmh E 6.9 mph11.1 kmh 29.83 in1010.2 mb - 0.00 in0.0 mm 0.24 in6.1 mm
10:25 PM 55.8°F13.2°C 49.0°F9.4°C 78% 2.3 mph E3.7 kmh E 2.3 mph3.7 kmh 29.83 in1010.2 mb - 0.00 in0.0 mm 0.24 in6.1 mm
10:30 PM 55.9°F13.3°C 49.1°F9.5°C 78% 4.6 mph SE7.4 kmh SE 6.9 mph11.1 kmh 29.83 in1010.2 mb - 0.00 in0.0 mm 0.24 in6.1 mm
10:35 PM 55.9°F13.3°C 48.8°F9.3°C 77% 3.5 mph SE5.6 kmh SE 8.1 mph13.0 kmh 29.83 in1010.2 mb - 0.00 in0.0 mm 0.24 in6.1 mm
10:40 PM 56.0°F13.3°C 48.9°F9.4°C 77% 2.3 mph SW3.7 kmh SW 6.9 mph11.1 kmh 29.83 in1010.2 mb - 0.00 in0.0 mm 0.24 in6.1 mm
10:45 PM 56.0°F13.3°C 48.9°F9.4°C 77% 4.6 mph SW7.4 kmh SW 5.8 mph9.3 kmh 29.83 in1010.2 mb - 0.00 in0.0 mm 0.24 in6.1 mm
10:50 PM 56.2°F13.4°C 49.1°F9.5°C 77% 4.6 mph SW7.4 kmh SW 13.8 mph22.2 kmh 29.83 in1010.2 mb - 0.00 in0.0 mm 0.24 in6.1 mm
10:55 PM 56.4°F13.6°C 49.3°F9.6°C 77% 3.5 mph SW5.6 kmh SW 4.6 mph7.4 kmh 29.83 in1010.2 mb - 0.00 in0.0 mm 0.24 in6.1 mm
11:00 PM 56.4°F13.6°C 49.3°F9.6°C 77% 3.5 mph SW5.6 kmh SW 4.6 mph7.4 kmh 29.83 in1010.2 mb - 0.00 in0.0 mm 0.35 in8.9 mm
11:05 PM 56.4°F13.6°C 49.3°F9.6°C 77% 4.6 mph SW7.4 kmh SW 11.5 mph18.5 kmh 29.84 in1010.5 mb - 0.00 in0.0 mm 0.35 in8.9 mm
11:10 PM 56.4°F13.6°C 49.3°F9.6°C 77% 2.3 mph SW3.7 kmh SW 3.5 mph5.6 kmh 29.83 in1010.2 mb - 0.00 in0.0 mm 0.35 in8.9 mm
11:15 PM 56.4°F13.6°C 49.3°F9.6°C 77% 2.3 mph WSW3.7 kmh WSW 4.6 mph7.4 kmh 29.83 in1010.2 mb - 0.00 in0.0 mm 0.35 in8.9 mm
11:20 PM 56.4°F13.6°C 49.3°F9.6°C 77% 6.9 mph WSW11.1 kmh WSW 11.5 mph18.5 kmh 29.83 in1010.2 mb - 0.00 in0.0 mm 0.35 in8.9 mm
11:25 PM 56.3°F13.5°C 49.2°F9.6°C 77% 4.6 mph WSW7.4 kmh WSW 8.1 mph13.0 kmh 29.83 in1010.2 mb - 0.00 in0.0 mm 0.35 in8.9 mm
11:30 PM 56.2°F13.4°C 49.1°F9.5°C 77% 5.8 mph WSW9.3 kmh WSW 11.5 mph18.5 kmh 29.83 in1010.2 mb - 0.00 in0.0 mm 0.35 in8.9 mm
11:35 PM 56.1°F13.4°C 49.0°F9.4°C 77% 3.5 mph SW5.6 kmh SW 10.4 mph16.7 kmh 29.83 in1010.2 mb - 0.00 in0.0 mm 0.35 in8.9 mm
11:40 PM 56.0°F13.3°C 48.9°F9.4°C 77% 3.5 mph WSW5.6 kmh WSW 4.6 mph7.4 kmh 29.83 in1010.2 mb - 0.00 in0.0 mm 0.35 in8.9 mm
11:45 PM 56.0°F13.3°C 48.9°F9.4°C 77% 4.6 mph WSW7.4 kmh WSW 4.6 mph7.4 kmh 29.83 in1010.2 mb - 0.00 in0.0 mm 0.35 in8.9 mm
11:50 PM 55.9°F13.3°C 48.8°F9.3°C 77% 3.5 mph WSW5.6 kmh WSW 6.9 mph11.1 kmh 29.84 in1010.5 mb - 0.00 in0.0 mm 0.35 in8.9 mm
11:55 PM 55.8°F13.2°C 48.7°F9.3°C 77% 2.3 mph WSW3.7 kmh WSW 10.4 mph16.7 kmh 29.84 in1010.5 mb - 0.00 in0.0 mm 0.35 in8.9 mm